Terminal Aerodrome Forecast
Issued by NWS

Home | Current Version | Previous Version | Text Only | Print | Product List | Glossary On
Versions: 1 2 3 4 5 6 7 8 9 10 11 12 13
000
FTUS43 KDTX 190500
TAFDET
TAF
KDET 190534Z 1906/2006 05006KT P6SM SKC
      TEMPO 1906/1908 P6SM BKN035
     FM192000 12008KT P6SM SKC=

USA.gov is the U.S. government's official web portal to all federal, state and local government web resources and services.